Time;durP1;ratioP1;P1;durP2;ratioP2;P2;SDS_P1;SDS_P2;PMS_P1;PMS_P2;Temp;Humidity;BMP_temperature;BMP_pressure;BME280_temperature;BME280_humidity;BME280_pressure;Samples;Min_cycle;Max_cycle;Signal;HPM_P1;HPM_P2
2022/11/14 00:02:02;;;;;;;31.53;17.37;;;12.90;99.90;;;;;;5031616;28;20212;-57
2022/11/14 00:04:28;;;;;;;31.00;18.63;;;12.90;99.90;;;;;;5031562;28;20508;-57
2022/11/14 00:06:54;;;;;;;39.00;19.97;;;13.00;99.90;;;;;;5031300;28;20178;-57
2022/11/14 00:09:23;;;;;;;34.80;19.33;;;13.00;99.90;;;;;;5031907;28;20216;-57
2022/11/14 00:11:48;;;;;;;33.13;20.27;;;13.10;99.90;;;;;;5031392;28;20232;-57
2022/11/14 00:14:14;;;;;;;34.80;20.67;;;13.40;99.90;;;;;;5031318;28;20638;-57
2022/11/14 00:16:40;;;;;;;35.77;21.10;;;13.10;99.90;;;;;;5031324;28;20228;-57
2022/11/14 00:19:05;;;;;;;42.00;20.93;;;13.10;99.90;;;;;;5031296;28;20176;-57
2022/11/14 00:21:31;;;;;;;36.37;21.43;;;13.20;99.90;;;;;;5031262;28;20684;-57
2022/11/14 00:23:57;;;;;;;35.20;21.57;;;13.20;99.90;;;;;;5031244;28;20261;-57
2022/11/14 00:26:22;;;;;;;42.07;22.23;;;13.30;99.90;;;;;;5031219;28;20185;-57
2022/11/14 00:28:48;;;;;;;34.93;21.83;;;13.30;99.90;;;;;;5031182;28;20253;-57
2022/11/14 00:31:14;;;;;;;38.80;21.33;;;13.20;99.90;;;;;;5031312;28;20554;-57
2022/11/14 00:33:40;;;;;;;38.70;21.03;;;13.30;99.90;;;;;;5031278;28;20681;-57
2022/11/14 00:36:06;;;;;;;38.83;21.70;;;13.30;99.90;;;;;;5031112;28;20211;-57
2022/11/14 00:38:32;;;;;;;41.13;23.13;;;13.30;99.90;;;;;;5031043;28;20178;-57
2022/11/14 00:40:57;;;;;;;43.37;23.50;;;13.20;99.90;;;;;;5030652;28;20216;-57
2022/11/14 00:43:23;;;;;;;41.83;23.93;;;13.30;99.90;;;;;;5031162;28;20174;-57
2022/11/14 00:45:49;;;;;;;41.23;23.20;;;13.40;99.90;;;;;;5031218;28;20174;-57
2022/11/14 00:48:15;;;;;;;40.80;23.10;;;13.50;99.90;;;;;;5031069;28;20647;-57
2022/11/14 00:50:41;;;;;;;41.73;22.87;;;13.40;99.90;;;;;;5030876;28;20185;-57
2022/11/14 00:53:07;;;;;;;46.83;24.57;;;13.40;99.90;;;;;;5030966;28;20180;-57
2022/11/14 00:55:33;;;;;;;42.73;23.63;;;;;;;;;;5030918;28;20166;-57
2022/11/14 00:57:59;;;;;;;41.63;22.80;;;13.50;99.90;;;;;;5030809;28;20182;-57
2022/11/14 01:00:25;;;;;;;43.27;23.73;;;13.50;99.90;;;;;;5030794;28;20225;-57
2022/11/14 01:02:50;;;;;;;41.60;23.20;;;13.50;99.90;;;;;;5030749;28;20660;-57
2022/11/14 01:05:16;;;;;;;38.83;23.37;;;13.50;99.90;;;;;;5030751;28;20243;-57
2022/11/14 01:07:42;;;;;;;46.10;24.37;;;13.50;99.90;;;;;;5030762;28;20181;-57
2022/11/14 01:10:08;;;;;;;41.67;23.23;;;13.50;99.90;;;;;;5030552;28;20174;-57
2022/11/14 01:12:34;;;;;;;37.23;22.60;;;13.50;99.90;;;;;;5030601;28;20552;-57
2022/11/14 01:14:59;;;;;;;42.13;22.40;;;13.60;99.90;;;;;;5030667;28;20637;-57
2022/11/14 01:17:27;;;;;;;42.43;24.40;;;13.60;99.90;;;;;;5030733;28;20546;-57
2022/11/14 01:19:53;;;;;;;38.63;23.53;;;13.60;99.90;;;;;;5030822;28;20174;-57
2022/11/14 01:22:19;;;;;;;39.30;24.33;;;13.60;99.90;;;;;;5030541;28;20189;-57
2022/11/14 01:24:44;;;;;;;40.63;24.37;;;13.60;99.90;;;;;;5030612;28;20170;-57
2022/11/14 01:27:10;;;;;;;44.60;23.57;;;13.60;99.90;;;;;;5030547;28;20188;-57
2022/11/14 01:29:36;;;;;;;44.50;25.95;;;13.60;99.90;;;;;;5030740;28;20663;-58
2022/11/14 01:32:01;;;;;;;42.90;24.37;;;13.60;99.90;;;;;;5030527;28;20673;-57
2022/11/14 01:34:28;;;;;;;40.20;24.92;;;13.70;99.90;;;;;;5030587;28;20253;-57
2022/11/14 01:36:54;;;;;;;37.93;23.90;;;13.70;99.90;;;;;;5030611;28;20182;-57
2022/11/14 01:39:19;;;;;;;44.40;24.73;;;13.70;99.90;;;;;;5030512;28;20251;-57
2022/11/14 01:41:45;;;;;;;44.30;23.20;;;13.80;99.90;;;;;;5030399;28;20185;-57
2022/11/14 01:44:14;;;;;;;42.43;23.10;;;13.80;99.90;;;;;;5030488;28;20628;-57
2022/11/14 01:46:45;;;;;;;39.83;23.63;;;13.90;99.90;;;;;;5030465;28;20177;-57
2022/11/14 01:49:42;;;;;;;41.20;22.67;;;13.90;99.90;;;;;;5029827;28;20166;-57
2022/11/14 01:52:12;;;;;;;43.77;22.80;;;13.90;99.90;;;;;;5026255;28;20316;-57
2022/11/14 01:54:43;;;;;;;38.97;22.60;;;13.90;99.90;;;;;;5033255;28;20608;-58
2022/11/14 01:57:11;;;;;;;38.55;22.90;;;13.90;99.90;;;;;;5033874;28;20170;-57
2022/11/14 01:59:41;;;;;;;39.53;21.70;;;14.00;99.90;;;;;;5033732;28;20225;-57
2022/11/14 02:02:20;;;;;;;42.25;22.23;;;14.00;99.90;;;;;;5016576;28;20170;-57
2022/11/14 02:04:54;;;;;;;33.47;20.50;;;14.00;99.90;;;;;;5033737;28;20166;-57
2022/11/14 02:07:20;;;;;;;34.95;20.13;;;14.10;99.90;;;;;;5033561;28;20169;-58
2022/11/14 02:09:47;;;;;;;40.83;21.65;;;14.10;99.90;;;;;;5033801;28;20202;-57
2022/11/14 02:12:16;;;;;;;35.42;20.65;;;14.10;99.90;;;;;;5033628;28;20232;-57
2022/11/14 02:14:44;;;;;;;33.73;20.90;;;13.90;99.90;;;;;;5033865;28;20640;-58
2022/11/14 02:17:11;;;;;;;36.85;20.65;;;14.10;99.90;;;;;;5033443;28;20181;-57
2022/11/14 02:19:53;;;;;;;34.70;19.60;;;14.10;99.90;;;;;;5033627;28;20174;-57
2022/11/14 02:22:18;;;;;;;36.00;21.40;;;14.10;99.90;;;;;;5033366;28;20225;-57
2022/11/14 02:24:45;;;;;;;37.65;20.80;;;14.10;99.90;;;;;;5033322;28;20641;-57
2022/11/14 02:27:13;;;;;;;39.78;20.13;;;14.10;99.90;;;;;;5033300;28;20239;-57
2022/11/14 02:29:38;;;;;;;35.70;19.67;;;14.10;99.90;;;;;;5033225;28;20178;-57
2022/11/14 02:32:04;;;;;;;38.55;19.92;;;14.10;99.90;;;;;;5033207;28;20237;-58
2022/11/14 02:34:30;;;;;;;35.80;20.25;;;14.10;99.90;;;;;;5015490;28;20257;-57
2022/11/14 02:36:56;;;;;;;34.60;19.70;;;14.10;99.90;;;;;;5033373;28;20186;-57
2022/11/14 02:39:22;;;;;;;39.53;20.55;;;14.10;99.90;;;;;;5033178;28;20636;-58
2022/11/14 02:41:50;;;;;;;33.08;18.48;;;14.10;99.90;;;;;;5033071;28;20181;-57
2022/11/14 02:44:16;;;;;;;31.17;19.40;;;13.50;99.90;;;;;;5033015;28;20192;-57
2022/11/14 02:46:42;;;;;;;42.10;19.25;;;13.90;99.90;;;;;;5032843;28;20158;-57
2022/11/14 02:49:07;;;;;;;34.97;20.55;;;14.10;99.90;;;;;;5033010;28;20176;-57
2022/11/14 02:51:33;;;;;;;35.80;19.38;;;14.10;99.90;;;;;;5032905;28;20225;-57
2022/11/14 02:53:59;;;;;;;39.53;19.55;;;;;;;;;;5032887;28;20214;-57
2022/11/14 02:56:24;;;;;;;38.42;20.70;;;14.10;99.90;;;;;;5032805;28;20651;-57
2022/11/14 02:58:50;;;;;;;34.17;19.13;;;14.10;99.90;;;;;;5032540;28;20288;-57
2022/11/14 03:01:16;;;;;;;34.53;19.60;;;14.10;99.90;;;;;;5032792;28;20664;-57
2022/11/14 03:03:41;;;;;;;35.03;19.42;;;14.10;99.90;;;;;;5032614;28;20174;-57
2022/11/14 03:06:07;;;;;;;29.88;17.92;;;14.10;99.90;;;;;;5032570;28;20170;-57
2022/11/14 03:08:33;;;;;;;41.47;19.88;;;14.10;99.90;;;;;;5032538;28;20169;-57
2022/11/14 03:11:07;;;;;;;32.93;18.70;;;14.10;99.90;;;;;;5032456;28;20202;-58
2022/11/14 03:13:32;;;;;;;31.77;18.60;;;14.10;99.90;;;;;;5032570;28;20257;-57
2022/11/14 03:16:07;;;;;;;36.60;19.20;;;14.00;99.90;;;;;;5032619;28;20253;-57
2022/11/14 03:18:33;;;;;;;35.22;19.63;;;15.60;99.90;;;;;;5032322;28;20204;-57
2022/11/14 03:21:14;;;;;;;48.13;19.77;;;14.10;99.90;;;;;;5032403;28;20174;-57
2022/11/14 03:23:40;;;;;;;37.37;17.73;;;14.10;99.90;;;;;;5032300;28;20895;-57
2022/11/14 03:26:07;;;;;;;33.80;17.95;;;14.10;99.90;;;;;;5032226;28;20656;-57
2022/11/14 03:28:33;;;;;;;33.17;18.43;;;14.20;99.90;;;;;;5032202;28;20195;-57
2022/11/14 03:30:59;;;;;;;35.37;18.03;;;14.10;99.90;;;;;;5032092;28;20288;-57
2022/11/14 03:33:25;;;;;;;29.50;16.77;;;14.00;99.90;;;;;;5032048;28;20269;-57
2022/11/14 03:35:51;;;;;;;33.73;17.30;;;14.00;99.90;;;;;;5032075;28;20170;-57
2022/11/14 03:38:18;;;;;;;33.20;18.00;;;14.10;99.90;;;;;;5031957;28;20209;-57
2022/11/14 03:40:44;;;;;;;30.30;16.53;;;14.10;99.90;;;;;;5031912;28;20162;-57
2022/11/14 03:43:10;;;;;;;29.45;16.50;;;14.20;99.90;;;;;;5032017;28;20719;-57
2022/11/14 03:45:36;;;;;;;29.80;15.88;;;14.10;99.90;;;;;;5031726;28;20174;-57
2022/11/14 03:48:03;;;;;;;35.63;15.73;;;14.20;99.90;;;;;;5031807;28;20178;-56
2022/11/14 03:50:29;;;;;;;32.63;16.87;;;14.10;99.90;;;;;;5031806;28;20174;-57
2022/11/14 03:52:55;;;;;;;28.92;16.50;;;14.10;99.90;;;;;;5031639;28;20542;-57
2022/11/14 03:55:20;;;;;;;29.52;16.30;;;14.10;99.90;;;;;;5031907;28;20671;-57
2022/11/14 03:57:46;;;;;;;29.52;15.88;;;14.10;99.90;;;;;;5031607;28;20652;-57
2022/11/14 04:00:12;;;;;;;26.38;16.25;;;14.10;99.90;;;;;;5031510;28;20221;-57
2022/11/14 04:02:38;;;;;;;34.47;17.10;;;14.10;99.90;;;;;;5031583;28;20182;-57
2022/11/14 04:05:03;;;;;;;33.00;17.17;;;14.10;99.90;;;;;;5031466;28;20212;-57
2022/11/14 04:07:29;;;;;;;24.55;16.05;;;14.20;99.90;;;;;;5031494;28;20166;-57
2022/11/14 04:09:55;;;;;;;29.90;16.33;;;14.10;99.90;;;;;;5031433;28;20178;-57
2022/11/14 04:12:20;;;;;;;28.70;17.10;;;14.10;99.90;;;;;;5031297;28;20201;-57
2022/11/14 04:14:46;;;;;;;33.83;17.70;;;14.20;99.90;;;;;;5031357;28;20174;-57
2022/11/14 04:17:11;;;;;;;29.13;17.73;;;14.20;99.90;;;;;;5030845;28;20190;-57
2022/11/14 04:19:37;;;;;;;33.33;16.90;;;14.20;99.90;;;;;;5029909;28;20174;-57
2022/11/14 04:22:03;;;;;;;28.75;17.05;;;;;;;;;;5030977;28;20273;-57
2022/11/14 04:24:29;;;;;;;28.50;16.90;;;14.20;99.90;;;;;;5031238;28;20248;-57
2022/11/14 04:26:55;;;;;;;32.08;17.27;;;14.20;99.90;;;;;;5031162;28;20253;-57
2022/11/14 04:29:21;;;;;;;29.38;17.52;;;14.20;99.90;;;;;;5031219;28;20171;-57
2022/11/14 04:31:46;;;;;;;33.03;17.60;;;14.30;99.90;;;;;;5030978;28;20218;-57
2022/11/14 04:34:12;;;;;;;32.30;16.75;;;14.30;99.90;;;;;;5031184;28;20170;-57
2022/11/14 04:36:37;;;;;;;32.95;17.48;;;14.30;99.90;;;;;;5031204;28;20209;-57
2022/11/14 04:39:03;;;;;;;32.03;16.55;;;14.30;99.90;;;;;;5031103;28;20178;-57
2022/11/14 04:41:29;;;;;;;35.15;17.60;;;14.30;99.90;;;;;;5031001;28;20224;-57
2022/11/14 04:43:54;;;;;;;26.33;16.42;;;14.30;99.90;;;;;;5031075;28;20170;-57
2022/11/14 04:46:20;;;;;;;29.20;16.80;;;14.30;99.90;;;;;;5013400;28;20254;-57
2022/11/14 04:48:46;;;;;;;25.55;15.88;;;14.40;99.90;;;;;;5030999;28;20235;-57
2022/11/14 04:51:11;;;;;;;27.67;15.38;;;14.40;99.90;;;;;;5030884;28;20544;-57
2022/11/14 04:53:37;;;;;;;29.08;16.02;;;14.40;99.90;;;;;;5030935;28;20177;-57
2022/11/14 04:56:03;;;;;;;25.70;16.30;;;14.30;99.90;;;;;;5031010;28;20714;-57
2022/11/14 04:58:29;;;;;;;28.17;16.08;;;14.40;99.90;;;;;;5030789;28;20197;-57
2022/11/14 05:00:56;;;;;;;29.02;15.77;;;14.30;99.90;;;;;;5030870;28;20227;-57
2022/11/14 05:03:22;;;;;;;24.85;16.00;;;14.30;99.90;;;;;;5030814;28;20252;-57
2022/11/14 05:05:48;;;;;;;26.02;16.13;;;14.30;99.90;;;;;;5030656;28;20534;-57
2022/11/14 05:08:14;;;;;;;23.58;14.90;;;;;;;;;;5030760;28;20204;-57
2022/11/14 05:10:44;;;;;;;29.98;16.63;;;14.20;99.90;;;;;;5030916;28;20174;-57
2022/11/14 05:13:11;;;;;;;32.85;16.20;;;14.40;99.90;;;;;;5030831;28;20316;-57
2022/11/14 05:15:39;;;;;;;29.77;16.33;;;;;;;;;;4819879;23;20269;-57
2022/11/14 05:18:04;;;;;;;29.20;16.75;;;14.40;99.90;;;;;;4989911;28;20672;-57
2022/11/14 05:20:30;;;;;;;27.13;15.02;;;14.30;99.90;;;;;;4988601;28;20271;-57
2022/11/14 05:22:57;;;;;;;26.40;15.65;;;14.10;99.90;;;;;;4989626;28;20563;-57
2022/11/14 05:25:23;;;;;;;30.10;17.25;;;14.20;99.90;;;;;;4991185;28;20190;-57
2022/11/14 05:27:49;;;;;;;27.40;16.13;;;14.20;99.90;;;;;;4991626;28;20175;-57
2022/11/14 05:30:15;;;;;;;29.40;17.20;;;14.20;99.90;;;;;;4995432;28;20172;-57
2022/11/14 05:32:40;;;;;;;28.92;16.95;;;14.10;99.90;;;;;;4994268;28;20222;-57
2022/11/14 05:35:06;;;;;;;35.90;16.92;;;14.20;99.90;;;;;;4995092;28;20175;-58
2022/11/14 05:37:35;;;;;;;32.23;17.73;;;14.10;99.90;;;;;;4994981;28;20180;-57
2022/11/14 05:40:01;;;;;;;27.40;16.10;;;14.10;99.90;;;;;;4994970;28;20183;-57
2022/11/14 05:42:27;;;;;;;30.93;17.50;;;14.10;99.90;;;;;;4994843;28;20641;-57
2022/11/14 05:44:53;;;;;;;29.42;16.55;;;14.20;99.90;;;;;;4995075;28;20172;-58
2022/11/14 05:47:19;;;;;;;30.70;16.90;;;14.20;99.90;;;;;;4994833;28;20665;-57
2022/11/14 05:49:44;;;;;;;35.33;17.43;;;14.20;99.90;;;;;;4994668;28;20182;-57
2022/11/14 05:52:10;;;;;;;33.30;17.47;;;14.20;99.90;;;;;;4994559;28;20257;-57
2022/11/14 05:54:36;;;;;;;29.48;16.85;;;14.10;99.90;;;;;;4994630;28;20183;-57
2022/11/14 05:57:02;;;;;;;27.23;16.97;;;14.20;99.90;;;;;;4994649;28;20183;-58
2022/11/14 05:59:27;;;;;;;29.03;17.83;;;14.20;99.90;;;;;;4994603;28;20179;-57
2022/11/14 06:01:53;;;;;;;30.25;16.77;;;14.20;99.90;;;;;;4994574;28;20186;-57
2022/11/14 06:04:19;;;;;;;30.40;17.42;;;14.20;99.90;;;;;;4994466;28;20179;-58
2022/11/14 06:06:44;;;;;;;41.25;17.88;;;14.20;99.90;;;;;;4994539;28;20665;-58
2022/11/14 06:09:10;;;;;;;34.43;17.60;;;14.30;99.90;;;;;;4994403;28;20271;-58
2022/11/14 06:11:36;;;;;;;38.67;17.25;;;14.30;99.90;;;;;;4994186;28;20206;-62
2022/11/14 06:14:02;;;;;;;25.98;16.40;;;14.20;99.90;;;;;;4994264;28;20187;-58
2022/11/14 06:16:28;;;;;;;31.88;17.27;;;14.20;99.90;;;;;;4994175;28;20407;-57
2022/11/14 06:18:54;;;;;;;40.80;17.70;;;14.20;99.90;;;;;;4994346;28;20183;-57
2022/11/14 06:21:22;;;;;;;25.52;15.77;;;14.20;99.90;;;;;;4994229;28;20198;-58
2022/11/14 06:23:48;;;;;;;34.13;16.45;;;14.30;99.90;;;;;;4994131;28;20506;-57
2022/11/14 06:26:31;;;;;;;28.58;15.73;;;14.30;99.90;;;;;;4994090;28;20630;-57
2022/11/14 06:28:58;;;;;;;31.75;16.05;;;15.10;99.90;;;;;;4994232;28;20179;-57
2022/11/14 06:31:24;;;;;;;37.38;16.33;;;14.20;99.90;;;;;;4993906;28;20215;-58
2022/11/14 06:33:50;;;;;;;35.22;16.48;;;14.20;99.90;;;;;;4993931;28;20163;-58
2022/11/14 06:36:16;;;;;;;25.33;15.52;;;14.30;99.90;;;;;;4993998;28;20214;-58
2022/11/14 06:38:43;;;;;;;31.80;15.68;;;14.20;99.90;;;;;;4993470;28;20242;-58
2022/11/14 06:41:17;;;;;;;37.85;16.88;;;14.40;99.90;;;;;;4993848;28;20175;-57
2022/11/14 06:43:45;;;;;;;28.48;16.17;;;14.30;99.90;;;;;;4993628;28;20177;-58
2022/11/14 06:46:14;;;;;;;28.08;14.88;;;14.30;99.90;;;;;;4993673;28;20206;-57
2022/11/14 06:48:41;;;;;;;22.88;14.52;;;14.30;99.90;;;;;;4993640;28;20179;-57
2022/11/14 06:51:08;;;;;;;25.25;14.48;;;14.30;99.90;;;;;;4993480;28;20733;-57
2022/11/14 06:53:35;;;;;;;26.60;14.90;;;14.30;99.90;;;;;;4993566;28;20175;-57
2022/11/14 06:56:09;;;;;;;25.95;15.05;;;14.30;99.90;;;;;;4993681;28;20175;-57
2022/11/14 06:58:38;;;;;;;24.48;14.85;;;14.30;99.90;;;;;;4993479;28;20198;-57
2022/11/14 07:01:11;;;;;;;34.72;15.68;;;14.30;99.90;;;;;;4993397;28;20171;-57
2022/11/14 07:03:36;;;;;;;27.58;15.02;;;14.30;99.90;;;;;;4993374;28;20187;-57
2022/11/14 07:06:04;;;;;;;33.28;15.48;;;14.30;99.90;;;;;;4993332;28;20294;-57
2022/11/14 07:08:30;;;;;;;27.92;15.20;;;14.20;99.90;;;;;;4993293;28;20187;-57
2022/11/14 07:11:21;;;;;;;24.47;14.27;;;14.30;99.90;;;;;;4993207;28;20648;-57
2022/11/14 07:13:51;;;;;;;24.35;14.32;;;14.30;99.90;;;;;;4993135;28;20211;-57
2022/11/14 07:16:17;;;;;;;25.13;14.55;;;14.30;99.90;;;;;;4993047;28;20285;-57
2022/11/14 07:18:43;;;;;;;32.03;15.13;;;14.20;99.90;;;;;;4993121;28;20175;-58
2022/11/14 07:21:08;;;;;;;25.60;14.63;;;14.20;99.90;;;;;;4991929;28;20691;-57
2022/11/14 07:23:34;;;;;;;23.95;15.02;;;14.10;99.90;;;;;;4993135;28;20171;-57
2022/11/14 07:26:08;;;;;;;28.07;15.83;;;14.10;99.90;;;;;;4992832;28;20179;-57
2022/11/14 07:28:35;;;;;;;28.43;15.70;;;14.10;99.90;;;;;;4992858;28;20555;-57
2022/11/14 07:31:06;;;;;;;25.80;15.73;;;14.10;99.90;;;;;;4992817;28;20611;-57
2022/11/14 07:33:32;;;;;;;29.23;16.33;;;14.00;99.90;;;;;;4992938;28;20187;-57
2022/11/14 07:35:58;;;;;;;36.13;16.37;;;;;;;;;;4992721;28;20678;-57
2022/11/14 07:38:24;;;;;;;24.63;15.25;;;14.00;99.90;;;;;;4992655;28;20175;-57
2022/11/14 07:41:00;;;;;;;27.80;16.92;;;14.10;99.90;;;;;;4992594;28;20230;-57
2022/11/14 07:43:27;;;;;;;29.20;15.67;;;14.10;99.90;;;;;;4992592;28;20528;-57
2022/11/14 07:45:57;;;;;;;28.75;15.35;;;14.10;99.90;;;;;;4992612;28;20179;-57
2022/11/14 07:48:23;;;;;;;30.90;16.70;;;14.20;99.90;;;;;;4992559;28;20175;-57
2022/11/14 07:50:48;;;;;;;28.97;16.10;;;14.20;99.90;;;;;;4991675;28;20653;-57
2022/11/14 07:53:15;;;;;;;30.20;16.07;;;14.10;99.90;;;;;;4992137;28;20215;-57
2022/11/14 07:55:41;;;;;;;25.42;14.88;;;14.10;99.90;;;;;;4992097;28;20230;-57
2022/11/14 07:58:06;;;;;;;27.40;15.10;;;14.20;99.90;;;;;;4992187;28;20183;-57
2022/11/14 08:00:32;;;;;;;37.37;15.57;;;14.20;99.90;;;;;;4991268;28;20600;-57
2022/11/14 08:02:57;;;;;;;33.13;16.17;;;14.20;99.90;;;;;;4974242;28;20183;-57
2022/11/14 08:05:23;;;;;;;36.20;16.20;;;14.20;99.90;;;;;;4991074;28;20187;-57
2022/11/14 08:07:52;;;;;;;30.17;15.83;;;14.20;99.90;;;;;;4992212;28;20206;-57
2022/11/14 08:10:18;;;;;;;23.02;15.15;;;14.10;99.90;;;;;;4992027;28;20634;-57
2022/11/14 08:12:44;;;;;;;35.47;15.90;;;14.20;99.90;;;;;;4991989;28;20285;-57
2022/11/14 08:15:12;;;;;;;30.77;16.10;;;14.00;99.90;;;;;;4991918;28;20709;-57
2022/11/14 08:17:38;;;;;;;29.57;16.00;;;14.10;99.90;;;;;;4991896;28;20253;-57
2022/11/14 08:20:06;;;;;;;26.37;15.93;;;14.10;99.90;;;;;;4992004;28;20685;-57
2022/11/14 08:22:32;;;;;;;32.33;16.00;;;14.00;99.90;;;;;;4991949;28;20638;-57
2022/11/14 08:24:58;;;;;;;22.83;14.43;;;14.00;99.90;;;;;;4991758;28;20178;-57
2022/11/14 08:27:24;;;;;;;33.23;16.30;;;14.40;99.90;;;;;;4991861;28;20531;-57
2022/11/14 08:29:50;;;;;;;33.20;16.50;;;;;;;;;;4991813;28;20565;-57
2022/11/14 08:32:17;;;;;;;32.60;16.47;;;14.10;99.90;;;;;;4991536;28;20210;-58
2022/11/14 08:34:42;;;;;;;36.20;16.63;;;14.10;99.90;;;;;;4991660;28;20258;-58
2022/11/14 08:37:08;;;;;;;29.33;16.47;;;14.10;99.90;;;;;;4991783;28;20254;-57
2022/11/14 08:39:34;;;;;;;31.77;16.80;;;14.10;99.90;;;;;;4991722;28;20183;-57
2022/11/14 08:41:59;;;;;;;31.23;16.13;;;14.20;99.90;;;;;;4991765;28;20179;-58
2022/11/14 08:44:25;;;;;;;33.97;16.77;;;14.00;99.90;;;;;;4991799;28;20189;-58
2022/11/14 08:46:51;;;;;;;31.60;16.90;;;14.00;99.90;;;;;;4991585;28;20182;-57
2022/11/14 08:49:16;;;;;;;32.67;16.77;;;14.00;99.90;;;;;;4991455;28;20171;-57
2022/11/14 08:51:42;;;;;;;32.77;16.97;;;14.10;99.90;;;;;;4991098;28;20568;-57
2022/11/14 08:54:08;;;;;;;32.80;16.70;;;14.20;99.90;;;;;;4991435;28;20484;-57
2022/11/14 08:56:33;;;;;;;31.50;16.03;;;14.10;99.90;;;;;;4991541;28;20179;-57
2022/11/14 08:59:02;;;;;;;29.52;16.42;;;14.20;99.90;;;;;;4991506;28;20666;-57
2022/11/14 09:01:28;;;;;;;31.77;15.97;;;14.20;99.90;;;;;;4991627;28;20175;-57
2022/11/14 09:03:54;;;;;;;31.67;16.90;;;14.20;99.90;;;;;;4995294;28;20186;-57
2022/11/14 09:06:20;;;;;;;36.13;16.70;;;14.30;99.90;;;;;;4995566;28;20513;-57
2022/11/14 09:08:45;;;;;;;29.37;14.83;;;14.50;99.90;;;;;;4995470;28;20207;-57
2022/11/14 09:11:11;;;;;;;27.53;15.33;;;14.70;99.90;;;;;;4995151;28;20171;-57
2022/11/14 09:13:37;;;;;;;34.80;13.90;;;14.90;99.90;;;;;;4995413;28;20191;-57
2022/11/14 09:16:02;;;;;;;33.10;15.30;;;15.40;99.90;;;;;;4995128;28;20214;-57
2022/11/14 09:18:29;;;;;;;24.83;13.98;;;15.40;99.90;;;;;;4995249;28;20183;-57
2022/11/14 09:21:06;;;;;;;29.67;13.55;;;15.30;99.90;;;;;;4995299;28;20202;-57
2022/11/14 09:23:32;;;;;;;29.65;12.88;;;15.40;99.90;;;;;;4994033;28;20175;-57
2022/11/14 09:26:05;;;;;;;23.95;14.43;;;15.40;99.90;;;;;;4995253;28;20179;-57
2022/11/14 09:28:31;;;;;;;25.88;13.68;;;15.40;99.90;;;;;;4995208;28;20183;-57
2022/11/14 09:31:05;;;;;;;23.80;13.57;;;15.40;99.90;;;;;;4995170;28;20617;-57
2022/11/14 09:33:31;;;;;;;30.85;13.25;;;15.60;99.90;;;;;;4995028;28;20194;-57
2022/11/14 09:36:02;;;;;;;28.25;13.68;;;15.60;99.90;;;;;;4994927;28;20271;-57
2022/11/14 09:38:28;;;;;;;26.98;13.15;;;15.70;99.90;;;;;;4994952;28;20176;-57
2022/11/14 09:41:12;;;;;;;26.10;12.60;;;15.90;99.90;;;;;;4994810;28;20171;-57
2022/11/14 09:44:07;;;;;;;23.50;12.32;;;16.10;99.90;;;;;;4994815;28;20213;-57
2022/11/14 09:46:51;;;;;;;28.85;12.13;;;16.30;99.90;;;;;;4994872;28;20262;-57
2022/11/14 09:49:24;;;;;;;28.05;12.82;;;16.40;99.90;;;;;;4994785;28;20328;-57
2022/11/14 09:51:57;;;;;;;25.98;11.50;;;16.50;99.90;;;;;;4994471;28;20294;-56
2022/11/14 09:54:30;;;;;;;23.33;11.75;;;16.60;99.90;;;;;;4994445;28;20663;-56
2022/11/14 09:56:55;;;;;;;21.98;12.05;;;16.50;99.90;;;;;;4994560;28;20190;-56
2022/11/14 09:59:21;;;;;;;29.77;12.43;;;16.60;99.90;;;;;;4994459;28;20167;-56
2022/11/14 10:02:02;;;;;;;25.73;11.93;;;17.30;99.90;;;;;;4994342;28;20184;-56
2022/11/14 10:04:49;;;;;;;28.90;11.45;;;17.40;99.90;;;;;;4994260;28;20181;-56
2022/11/14 10:07:56;;;;;;;23.30;10.30;;;17.60;99.90;;;;;;4975843;28;20191;-57
2022/11/14 10:10:28;;;;;;;28.25;10.15;;;17.70;99.90;;;;;;4993813;28;20190;-57
2022/11/14 10:13:10;;;;;;;23.67;9.93;;;17.60;99.90;;;;;;4994093;28;20198;-57
2022/11/14 10:15:50;;;;;;;18.63;10.10;;;17.70;99.90;;;;;;4993627;28;20167;-57
2022/11/14 10:18:21;;;;;;;21.35;10.98;;;18.10;99.90;;;;;;4994142;28;20274;-56
2022/11/14 10:20:54;;;;;;;23.13;10.30;;;17.20;99.90;;;;;;4993953;28;20179;-57
2022/11/14 10:23:36;;;;;;;20.60;9.73;;;17.30;99.90;;;;;;4994076;28;20178;-57
2022/11/14 10:26:22;;;;;;;22.30;9.38;;;17.70;99.90;;;;;;4993911;28;20178;-56
2022/11/14 10:29:26;;;;;;;19.35;9.05;;;18.00;99.90;;;;;;4976452;28;20171;-56
2022/11/14 10:32:17;;;;;;;19.00;9.27;;;18.20;99.90;;;;;;4972925;28;20590;-57
2022/11/14 10:35:10;;;;;;;25.75;8.82;;;18.50;99.90;;;;;;4993723;28;20266;-57
2022/11/14 10:37:50;;;;;;;23.20;8.02;;;19.00;99.90;;;;;;4993748;28;20258;-57
2022/11/14 10:40:36;;;;;;;17.33;8.88;;;19.20;99.90;;;;;;4993520;28;20167;-57
2022/11/14 10:43:31;;;;;;;19.52;8.20;;;19.40;99.90;;;;;;4993768;28;20253;-57
2022/11/14 10:46:07;;;;;;;19.00;8.02;;;21.40;99.90;;;;;;4993517;28;20182;-57
2022/11/14 10:48:40;;;;;;;16.70;6.38;;;21.20;99.90;;;;;;4993532;28;20167;-57
2022/11/14 10:51:21;;;;;;;13.23;4.78;;;19.60;99.90;;;;;;4993342;28;20167;-57
2022/11/14 10:53:58;;;;;;;16.40;5.57;;;19.60;99.90;;;;;;4993561;28;20191;-57
2022/11/14 10:56:24;;;;;;;15.35;5.25;;;19.60;99.90;;;;;;4993440;28;20178;-57
2022/11/14 10:58:50;;;;;;;13.98;4.85;;;19.30;99.90;;;;;;4993124;28;20187;-56
2022/11/14 11:01:34;;;;;;;13.75;4.45;;;18.80;99.90;;;;;;4992058;28;20629;-56
2022/11/14 11:04:22;;;;;;;10.63;4.22;;;18.50;99.90;;;;;;4993363;28;20470;-56
2022/11/14 11:06:50;;;;;;;10.07;4.97;;;18.30;99.90;;;;;;4993105;28;20175;-57
2022/11/14 11:12:06;;;;;;;14.63;4.45;;;18.00;99.90;;;;;;4993312;28;20708;-57
2022/11/14 11:14:34;;;;;;;13.75;4.07;;;18.00;99.90;;;;;;4993176;28;20241;-57
2022/11/14 11:17:11;;;;;;;14.15;4.60;;;18.10;99.90;;;;;;4992959;28;20561;-58
2022/11/14 11:19:38;;;;;;;11.95;3.83;;;18.10;99.90;;;;;;4993064;28;20167;-56
2022/11/14 11:22:21;;;;;;;11.57;3.85;;;17.80;99.90;;;;;;4992879;28;20198;-56
2022/11/14 11:24:47;;;;;;;20.58;4.20;;;17.70;99.90;;;;;;4992956;28;20225;-56
2022/11/14 11:27:22;;;;;;;15.73;3.70;;;17.60;99.90;;;;;;4992910;28;20167;-58
2022/11/14 11:30:03;;;;;;;24.02;4.05;;;17.40;99.90;;;;;;4992866;28;20221;-56
2022/11/14 11:32:29;;;;;;;9.30;3.13;;;17.20;99.90;;;;;;4992724;28;20214;-56
2022/11/14 11:34:56;;;;;;;8.43;3.50;;;17.10;99.90;;;;;;4992791;28;20226;-57
2022/11/14 11:38:01;;;;;;;18.67;3.90;;;16.90;99.90;;;;;;4992721;28;20168;-56
2022/11/14 11:40:29;;;;;;;8.05;3.78;;;16.80;99.90;;;;;;4992425;28;20183;-57
2022/11/14 11:43:22;;;;;;;5.90;3.08;;;16.80;99.90;;;;;;4992546;28;20179;-57
2022/11/14 11:45:51;;;;;;;10.02;3.78;;;16.70;99.90;;;;;;4985271;28;20249;-56
2022/11/14 11:48:20;;;;;;;11.43;3.50;;;16.90;99.90;;;;;;4992485;28;20651;-56
2022/11/14 11:50:46;;;;;;;12.43;4.35;;;16.80;99.90;;;;;;4992468;28;20179;-57
2022/11/14 11:53:21;;;;;;;8.38;4.65;;;16.70;99.90;;;;;;4992302;28;20258;-56
2022/11/14 11:55:51;;;;;;;12.70;4.50;;;16.80;99.90;;;;;;4992402;28;20179;-56
2022/11/14 11:58:35;;;;;;;11.82;4.40;;;16.80;99.90;;;;;;4992272;28;20186;-57
2022/11/14 12:01:01;;;;;;;11.85;4.05;;;16.70;99.90;;;;;;4992179;28;20198;-57
2022/11/14 12:03:27;;;;;;;8.85;4.55;;;16.70;99.90;;;;;;4992027;28;20254;-57
2022/11/14 12:06:01;;;;;;;11.40;4.10;;;16.70;99.90;;;;;;4991713;28;20175;-57
2022/11/14 12:08:45;;;;;;;10.45;4.13;;;16.60;99.90;;;;;;4985469;28;20178;-56
2022/11/14 12:11:18;;;;;;;12.70;4.68;;;16.50;99.90;;;;;;4988327;28;20171;-60
2022/11/14 12:13:56;;;;;;;9.20;3.80;;;16.60;99.90;;;;;;5006524;28;20187;-57
2022/11/14 12:17:13;;;;;;;10.85;4.70;;;16.60;99.90;;;;;;4991742;28;20226;-57
2022/11/14 12:19:48;;;;;;;10.27;4.60;;;16.70;99.90;;;;;;4933498;28;20230;-58
2022/11/14 12:22:32;;;;;;;10.63;4.00;;;16.90;99.90;;;;;;4991729;28;20536;-58
2022/11/14 12:25:05;;;;;;;12.32;4.40;;;17.00;99.90;;;;;;4991943;28;20255;-58
2022/11/14 12:28:01;;;;;;;11.20;4.40;;;16.90;99.90;;;;;;4991868;28;20207;-57
2022/11/14 12:30:28;;;;;;;9.85;4.20;;;16.90;99.90;;;;;;4991874;28;20262;-57
2022/11/14 12:33:15;;;;;;;11.25;3.95;;;16.80;99.90;;;;;;4991580;28;20209;-58
2022/11/14 12:35:58;;;;;;;11.55;4.35;;;16.70;99.90;;;;;;4991606;28;20173;-57
2022/11/14 12:38:29;;;;;;;10.68;3.95;;;16.60;99.90;;;;;;4991209;28;20183;-57
2022/11/14 12:40:59;;;;;;;11.15;4.57;;;16.60;99.90;;;;;;4991612;28;20257;-56
2022/11/14 12:43:34;;;;;;;9.55;4.10;;;16.50;99.90;;;;;;4991679;28;20179;-56
2022/11/14 12:46:05;;;;;;;10.52;3.85;;;16.40;99.90;;;;;;4991493;28;20196;-56